createdAt,value
2017-05-10T00:00:31.168Z,0
2017-05-10T00:01:11.640Z,0
2017-05-10T00:01:52.128Z,0
2017-05-10T00:02:32.584Z,0
2017-05-10T00:03:13.117Z,0
2017-05-10T00:03:53.582Z,0
2017-05-10T00:04:34.075Z,0
2017-05-10T00:05:14.522Z,0
2017-05-10T00:05:55.027Z,0
2017-05-10T00:06:35.519Z,0
2017-05-10T00:07:15.988Z,0
2017-05-10T00:07:56.480Z,0
2017-05-10T00:08:36.935Z,0
2017-05-10T00:09:17.446Z,0
2017-05-10T00:09:57.967Z,0
2017-05-10T00:10:38.394Z,0
2017-05-10T00:11:18.882Z,0
2017-05-10T00:11:59.374Z,0
2017-05-10T00:12:39.835Z,0
2017-05-10T00:13:20.308Z,0
2017-05-10T00:14:00.785Z,0
2017-05-10T00:14:41.289Z,0
2017-05-10T00:15:21.759Z,0
2017-05-10T00:16:02.248Z,0
2017-05-10T00:16:42.708Z,0
2017-05-10T00:17:23.189Z,0
2017-05-10T00:18:03.687Z,0
2017-05-10T00:18:44.130Z,0
2017-05-10T00:19:24.612Z,0
2017-05-10T00:20:05.095Z,0
2017-05-10T00:20:45.567Z,0
2017-05-10T00:21:26.085Z,0
2017-05-10T00:22:06.548Z,0
2017-05-10T00:22:47.013Z,0
2017-05-10T00:23:27.512Z,0
2017-05-10T00:24:07.976Z,0
2017-05-10T00:24:48.455Z,0
2017-05-10T00:25:28.947Z,0
2017-05-10T00:26:09.435Z,0
2017-05-10T00:26:49.887Z,0
2017-05-10T00:27:30.382Z,0
2017-05-10T00:28:10.856Z,0
2017-05-10T00:28:51.325Z,0
2017-05-10T00:29:31.802Z,0
2017-05-10T00:30:12.272Z,0
2017-05-10T00:30:52.765Z,0
2017-05-10T00:31:33.221Z,0
2017-05-10T00:32:13.728Z,0
2017-05-10T00:32:54.276Z,0
2017-05-10T00:33:34.770Z,0
2017-05-10T00:34:15.251Z,0
2017-05-10T00:34:55.725Z,0
2017-05-10T00:35:36.205Z,0
2017-05-10T00:36:16.697Z,0
2017-05-10T00:36:57.146Z,0
2017-05-10T00:37:37.651Z,0
2017-05-10T00:38:18.155Z,0
2017-05-10T00:38:58.644Z,0
2017-05-10T00:39:39.145Z,0
2017-05-10T00:40:19.645Z,0
2017-05-10T00:41:00.137Z,0
2017-05-10T00:41:40.628Z,0
2017-05-10T00:42:21.107Z,0
2017-05-10T00:43:01.578Z,0
2017-05-10T00:43:42.067Z,0
2017-05-10T00:44:22.556Z,0
2017-05-10T00:45:03.039Z,0
2017-05-10T00:45:43.520Z,0
2017-05-10T00:46:23.987Z,0
2017-05-10T00:47:04.446Z,0
2017-05-10T00:47:44.934Z,0
2017-05-10T00:48:25.413Z,0
2017-05-10T00:49:05.882Z,0
2017-05-10T00:49:46.374Z,0
2017-05-10T00:50:26.847Z,0
2017-05-10T00:51:07.373Z,0
2017-05-10T00:51:47.801Z,0
2017-05-10T00:52:28.322Z,0
2017-05-10T00:53:08.821Z,0
2017-05-10T00:53:49.278Z,0
2017-05-10T00:54:29.775Z,0
2017-05-10T00:55:10.234Z,0
2017-05-10T00:55:50.709Z,0
2017-05-10T00:56:31.204Z,0
2017-05-10T00:57:11.674Z,0
2017-05-10T00:57:52.136Z,0
2017-05-10T00:58:32.626Z,0
2017-05-10T00:59:13.097Z,0
2017-05-10T00:59:53.559Z,0
2017-05-10T01:00:34.065Z,0
2017-05-10T01:01:14.552Z,0
2017-05-10T01:01:55.029Z,0
2017-05-10T01:02:35.494Z,0
2017-05-10T01:03:15.988Z,0
2017-05-10T01:03:56.513Z,0
2017-05-10T01:04:36.955Z,0
2017-05-10T01:05:17.432Z,0
2017-05-10T01:05:57.919Z,0
2017-05-10T01:06:38.423Z,0
2017-05-10T01:07:18.903Z,0
2017-05-10T01:07:59.381Z,0
2017-05-10T01:08:39.876Z,0
2017-05-10T01:09:20.341Z,0
2017-05-10T01:10:00.835Z,0
2017-05-10T01:10:41.295Z,0
2017-05-10T01:11:21.794Z,0
2017-05-10T01:12:02.279Z,0
2017-05-10T01:12:42.784Z,0
2017-05-10T01:13:23.262Z,0
2017-05-10T01:14:03.727Z,0
2017-05-10T01:14:44.216Z,0
2017-05-10T01:15:24.701Z,0
2017-05-10T01:16:05.187Z,0
2017-05-10T01:16:45.661Z,0
2017-05-10T01:17:26.133Z,0
2017-05-10T01:18:06.619Z,0
2017-05-10T01:18:47.107Z,0
2017-05-10T01:19:27.580Z,0
2017-05-10T01:20:08.051Z,0
2017-05-10T01:20:48.523Z,0
2017-05-10T01:21:29.002Z,0
2017-05-10T01:22:09.484Z,0
2017-05-10T01:22:49.995Z,0
2017-05-10T01:23:30.470Z,0
2017-05-10T01:24:10.942Z,0
2017-05-10T01:24:51.455Z,0
2017-05-10T01:25:31.920Z,0
2017-05-10T01:26:12.382Z,0
2017-05-10T01:26:52.875Z,0
2017-05-10T01:27:33.385Z,0
2017-05-10T01:28:13.873Z,0
2017-05-10T01:28:54.341Z,0
2017-05-10T01:29:34.833Z,0
2017-05-10T01:30:15.310Z,0
2017-05-10T01:30:55.784Z,0
2017-05-10T01:31:36.293Z,0
2017-05-10T01:32:16.729Z,0
2017-05-10T01:32:57.179Z,0
2017-05-10T01:33:37.652Z,0
2017-05-10T01:34:18.117Z,0
2017-05-10T01:34:58.585Z,0
2017-05-10T01:35:39.111Z,0
2017-05-10T01:36:19.558Z,0
2017-05-10T01:37:00.077Z,0
2017-05-10T01:37:40.564Z,0
2017-05-10T01:38:21.032Z,0
2017-05-10T01:39:01.524Z,0
2017-05-10T01:39:42.044Z,0
2017-05-10T01:40:22.497Z,0
2017-05-10T01:41:02.983Z,0
2017-05-10T01:41:43.450Z,0
2017-05-10T01:42:23.931Z,0
2017-05-10T01:43:04.505Z,0
2017-05-10T01:43:44.994Z,0
2017-05-10T01:44:25.491Z,0
2017-05-10T01:45:05.977Z,0
2017-05-10T01:45:46.468Z,0
2017-05-10T01:46:26.958Z,0
2017-05-10T01:47:07.449Z,0
2017-05-10T01:47:47.917Z,0
2017-05-10T01:48:28.398Z,0
2017-05-10T01:49:08.903Z,0
2017-05-10T01:49:49.402Z,0
2017-05-10T01:50:29.898Z,0
2017-05-10T01:51:10.365Z,0
2017-05-10T01:51:50.836Z,0
2017-05-10T01:52:31.296Z,0
2017-05-10T01:53:11.876Z,0
2017-05-10T01:53:52.330Z,0
2017-05-10T01:54:32.800Z,0
2017-05-10T01:55:13.270Z,0
2017-05-10T01:55:53.769Z,0
2017-05-10T01:56:34.228Z,0
2017-05-10T01:57:14.722Z,0
2017-05-10T01:57:55.183Z,0
2017-05-10T01:58:35.658Z,0
2017-05-10T01:59:16.152Z,0
2017-05-10T01:59:56.654Z,0
2017-05-10T02:00:37.115Z,0
2017-05-10T02:01:17.618Z,0
2017-05-10T02:01:58.138Z,0
2017-05-10T02:02:38.574Z,0
2017-05-10T02:03:19.057Z,0
2017-05-10T02:03:59.562Z,0
2017-05-10T02:04:40.029Z,0
2017-05-10T02:05:20.522Z,0
2017-05-10T02:06:01.015Z,0
2017-05-10T02:06:41.480Z,0
2017-05-10T02:07:21.982Z,0
2017-05-10T02:08:02.474Z,0
2017-05-10T02:08:42.958Z,0
2017-05-10T02:09:23.444Z,0
2017-05-10T02:10:03.936Z,0
2017-05-10T02:10:44.390Z,0
2017-05-10T02:11:24.859Z,0
2017-05-10T02:12:05.346Z,0
2017-05-10T02:12:45.874Z,0
2017-05-10T02:13:26.319Z,0
2017-05-10T02:14:06.797Z,0
2017-05-10T02:14:47.297Z,0
2017-05-10T02:15:27.762Z,0
2017-05-10T02:16:08.239Z,0
2017-05-10T02:16:48.737Z,0
2017-05-10T02:17:29.228Z,0
2017-05-10T02:18:09.699Z,0
2017-05-10T02:18:50.185Z,0
2017-05-10T02:19:30.653Z,0
2017-05-10T02:20:11.134Z,0
2017-05-10T02:20:51.633Z,0
2017-05-10T02:21:32.129Z,0
2017-05-10T02:22:12.585Z,0
2017-05-10T02:22:53.072Z,0
2017-05-10T02:23:33.572Z,0
2017-05-10T02:24:14.056Z,0
2017-05-10T02:24:54.515Z,0
2017-05-10T02:25:35.004Z,0
2017-05-10T02:26:15.500Z,0
2017-05-10T02:26:56.003Z,0
2017-05-10T02:27:36.470Z,0
2017-05-10T02:28:16.967Z,0
2017-05-10T02:28:57.466Z,0
2017-05-10T02:29:37.971Z,0
2017-05-10T02:30:18.578Z,0
2017-05-10T02:30:59.025Z,0
2017-05-10T02:31:39.500Z,0
2017-05-10T02:32:20.014Z,0
2017-05-10T02:33:00.473Z,0
2017-05-10T02:33:40.969Z,0
2017-05-10T02:34:21.440Z,0
2017-05-10T02:35:01.925Z,0
2017-05-10T02:35:42.414Z,0
2017-05-10T02:36:22.869Z,0
2017-05-10T02:37:03.365Z,0
2017-05-10T02:37:43.864Z,0
2017-05-10T02:38:24.343Z,0
2017-05-10T02:39:04.821Z,0
2017-05-10T02:39:45.286Z,0
2017-05-10T02:40:25.802Z,0
2017-05-10T02:41:06.252Z,0
2017-05-10T02:41:46.738Z,0
2017-05-10T02:42:27.219Z,0
2017-05-10T02:43:07.666Z,0
2017-05-10T02:43:48.147Z,0
2017-05-10T02:44:28.677Z,0
2017-05-10T02:45:09.150Z,0
2017-05-10T02:45:49.630Z,0
2017-05-10T02:46:30.116Z,0
2017-05-10T02:47:10.593Z,0
2017-05-10T02:47:51.048Z,0
2017-05-10T02:48:31.553Z,0
2017-05-10T02:49:11.995Z,0
2017-05-10T02:49:52.480Z,0
2017-05-10T02:50:32.934Z,0
2017-05-10T02:51:13.437Z,0
2017-05-10T02:51:53.922Z,0
2017-05-10T02:52:34.409Z,0
2017-05-10T02:53:14.892Z,0
2017-05-10T02:53:55.345Z,4
2017-05-10T02:54:35.841Z,4
2017-05-10T02:55:16.336Z,4
2017-05-10T02:55:56.875Z,0
2017-05-10T02:56:37.337Z,0
2017-05-10T02:57:17.800Z,0
2017-05-10T02:57:58.260Z,0
2017-05-10T02:58:38.745Z,4
2017-05-10T02:59:19.239Z,4
2017-05-10T02:59:59.695Z,4
2017-05-10T03:00:40.187Z,4
2017-05-10T03:01:20.714Z,4
2017-05-10T03:02:01.194Z,4
2017-05-10T03:02:41.668Z,8
2017-05-10T03:03:22.147Z,4
2017-05-10T03:04:02.601Z,8
2017-05-10T03:04:43.115Z,12
2017-05-10T03:05:23.590Z,12
2017-05-10T03:06:04.113Z,16
2017-05-10T03:06:44.576Z,12
2017-05-10T03:07:25.080Z,16
2017-05-10T03:08:05.570Z,16
2017-05-10T03:08:46.019Z,16
2017-05-10T03:09:26.490Z,20
2017-05-10T03:10:06.984Z,24
2017-05-10T03:10:47.463Z,28
2017-05-10T03:11:27.935Z,28
2017-05-10T03:12:08.425Z,28
2017-05-10T03:12:48.881Z,28
2017-05-10T03:13:29.403Z,32
2017-05-10T03:14:09.857Z,32
2017-05-10T03:14:50.353Z,36
2017-05-10T03:15:30.834Z,36
2017-05-10T03:16:11.318Z,40
2017-05-10T03:16:51.797Z,44
2017-05-10T03:17:32.293Z,44
2017-05-10T03:18:12.777Z,48
2017-05-10T03:18:53.275Z,52
2017-05-10T03:19:33.730Z,52
2017-05-10T03:20:14.222Z,56
2017-05-10T03:20:54.713Z,56
2017-05-10T03:21:35.189Z,60
2017-05-10T03:22:15.728Z,64
2017-05-10T03:22:56.151Z,72
2017-05-10T03:23:36.630Z,72
2017-05-10T03:24:17.132Z,76
2017-05-10T03:24:57.610Z,80
2017-05-10T03:25:38.098Z,80
2017-05-10T03:26:18.596Z,84
2017-05-10T03:26:59.072Z,88
2017-05-10T03:27:39.562Z,96
2017-05-10T03:28:20.062Z,96
2017-05-10T03:29:00.521Z,108
2017-05-10T03:29:41.013Z,116
2017-05-10T03:30:21.480Z,120
2017-05-10T03:31:01.973Z,124
2017-05-10T03:31:42.456Z,116
2017-05-10T03:32:22.950Z,116
2017-05-10T03:33:03.451Z,120
2017-05-10T03:33:43.920Z,116
2017-05-10T03:34:24.416Z,112
2017-05-10T03:35:04.845Z,112
2017-05-10T03:35:45.336Z,108
2017-05-10T03:36:25.823Z,112
2017-05-10T03:37:06.304Z,112
2017-05-10T03:37:46.777Z,112
2017-05-10T03:38:27.251Z,116
2017-05-10T03:39:07.755Z,124
2017-05-10T03:39:48.226Z,128
2017-05-10T03:40:28.685Z,136
2017-05-10T03:41:09.176Z,148
2017-05-10T03:41:49.658Z,156
2017-05-10T03:42:30.137Z,168
2017-05-10T03:43:10.622Z,188
2017-05-10T03:43:51.097Z,208
2017-05-10T03:44:31.556Z,216
2017-05-10T03:45:12.033Z,224
2017-05-10T03:45:52.501Z,228
2017-05-10T03:46:32.995Z,240
2017-05-10T03:47:13.515Z,244
2017-05-10T03:47:54.012Z,252
2017-05-10T03:48:34.473Z,260
2017-05-10T03:49:14.961Z,268
2017-05-10T03:49:55.447Z,264
2017-05-10T03:50:35.939Z,268
2017-05-10T03:51:16.410Z,252
2017-05-10T03:51:56.883Z,256
2017-05-10T03:52:37.354Z,268
2017-05-10T03:53:17.830Z,248
2017-05-10T03:53:58.329Z,224
2017-05-10T03:54:38.810Z,204
2017-05-10T03:55:19.302Z,212
2017-05-10T03:55:59.764Z,248
2017-05-10T03:56:40.226Z,296
2017-05-10T03:57:20.748Z,340
2017-05-10T03:58:01.185Z,360
2017-05-10T03:58:41.668Z,388
2017-05-10T03:59:22.127Z,428
2017-05-10T04:00:02.584Z,456
2017-05-10T04:00:43.091Z,504
2017-05-10T04:01:23.585Z,548
2017-05-10T04:02:04.032Z,600
2017-05-10T04:02:44.511Z,652
2017-05-10T04:03:24.988Z,708
2017-05-10T04:04:05.452Z,768
2017-05-10T04:04:45.958Z,820
2017-05-10T04:05:26.413Z,876
2017-05-10T04:06:06.897Z,936
2017-05-10T04:06:47.382Z,992
2017-05-10T04:07:27.865Z,1040
2017-05-10T04:08:08.342Z,1076
2017-05-10T04:08:48.818Z,1104
2017-05-10T04:09:29.308Z,1128
2017-05-10T04:10:09.771Z,1160
2017-05-10T04:10:50.245Z,1192
2017-05-10T04:11:30.700Z,1224
2017-05-10T04:12:11.188Z,1252
2017-05-10T04:12:51.697Z,1276
2017-05-10T04:13:32.183Z,1300
2017-05-10T04:16:01.362Z,1408
2017-05-10T04:16:42.101Z,1420
2017-05-10T04:17:22.555Z,1440
2017-05-10T04:18:03.524Z,1472
2017-05-10T04:18:44.275Z,1496
2017-05-10T04:19:24.719Z,1512
2017-05-10T04:20:05.248Z,1520
2017-05-10T04:20:45.756Z,1524
2017-05-10T04:21:26.524Z,1508
2017-05-10T04:22:07.039Z,1472
2017-05-10T04:22:47.653Z,1424
2017-05-10T04:23:28.197Z,1364
2017-05-10T04:24:08.803Z,1292
2017-05-10T04:24:49.490Z,1200
2017-05-10T04:25:29.822Z,1128
2017-05-10T04:26:10.338Z,1084
2017-05-10T04:26:50.788Z,1064
2017-05-10T04:27:31.280Z,1064
2017-05-10T04:28:11.750Z,1064
2017-05-10T04:28:52.241Z,1052
2017-05-10T04:29:32.717Z,1020
2017-05-10T04:30:13.199Z,952
2017-05-10T04:30:53.696Z,852
2017-05-10T04:31:34.194Z,740
2017-05-10T04:32:14.647Z,616
2017-05-10T04:32:55.112Z,544
2017-05-10T04:33:35.611Z,552
2017-05-10T04:34:16.103Z,496
2017-05-10T04:34:56.609Z,468
2017-05-10T04:35:37.089Z,484
2017-05-10T04:36:17.568Z,516
2017-05-10T04:36:58.045Z,580
2017-05-10T04:37:38.528Z,664
2017-05-10T04:38:19.011Z,688
2017-05-10T04:38:59.473Z,732
2017-05-10T04:39:40.001Z,768
2017-05-10T04:40:20.566Z,760
2017-05-10T04:41:01.033Z,632
2017-05-10T04:41:41.575Z,696
2017-05-10T04:42:22.085Z,808
2017-05-10T04:43:02.593Z,1016
2017-05-10T04:43:43.399Z,1228
2017-05-10T04:44:23.978Z,1132
2017-05-10T04:45:04.420Z,976
2017-05-10T04:45:44.975Z,924
2017-05-10T04:46:25.434Z,976
2017-05-10T04:47:05.916Z,980
2017-05-10T04:47:46.410Z,1084
2017-05-10T04:48:26.899Z,1204
2017-05-10T04:49:07.451Z,1052
2017-05-10T04:49:47.961Z,748
2017-05-10T04:50:28.473Z,792
2017-05-10T04:51:08.930Z,872
2017-05-10T04:51:49.401Z,1008
2017-05-10T04:52:29.952Z,1084
2017-05-10T04:53:10.466Z,1380
2017-05-10T04:53:50.941Z,1656
2017-05-10T04:54:31.452Z,1724
2017-05-10T04:55:11.961Z,1812
2017-05-10T04:55:52.459Z,1904
2017-05-10T04:56:32.991Z,1904
2017-05-10T04:57:13.516Z,1936
2017-05-10T04:57:54.048Z,2028
2017-05-10T04:58:34.583Z,2188
2017-05-10T04:59:15.079Z,2320
2017-05-10T04:59:55.546Z,2324
2017-05-10T05:00:36.051Z,2400
2017-05-10T05:01:16.547Z,2588
2017-05-10T05:01:57.058Z,2644
2017-05-10T05:02:37.553Z,2608
2017-05-10T05:03:18.040Z,2584
2017-05-10T05:03:58.600Z,2636
2017-05-10T05:04:39.032Z,2820
2017-05-10T05:05:19.540Z,2908
2017-05-10T05:06:00.062Z,2868
2017-05-10T05:06:40.465Z,2736
2017-05-10T05:07:20.942Z,2732
2017-05-10T05:08:01.434Z,2676
2017-05-10T05:08:41.913Z,2600
2017-05-10T05:09:22.449Z,2404
2017-05-10T05:10:02.870Z,2172
2017-05-10T05:10:43.389Z,2092
2017-05-10T05:11:23.791Z,1912
2017-05-10T05:12:04.278Z,1696
2017-05-10T05:12:44.728Z,1792
2017-05-10T05:13:25.205Z,2040
2017-05-10T05:14:05.709Z,2076
2017-05-10T05:14:46.184Z,2308
2017-05-10T05:15:26.633Z,2572
2017-05-10T05:16:07.139Z,2892
2017-05-10T05:16:47.625Z,3068
2017-05-10T05:17:28.068Z,3212
2017-05-10T05:18:08.559Z,3152
2017-05-10T05:18:49.038Z,2788
2017-05-10T05:19:29.526Z,2596
2017-05-10T05:20:09.973Z,2588
2017-05-10T05:20:50.465Z,2240
2017-05-10T05:21:30.985Z,1600
2017-05-10T05:22:11.440Z,1316
2017-05-10T05:22:51.871Z,1404
2017-05-10T05:23:32.341Z,1660
2017-05-10T05:24:12.813Z,2116
2017-05-10T05:24:53.293Z,1964
2017-05-10T05:25:33.820Z,2180
2017-05-10T05:26:14.270Z,2068
2017-05-10T05:26:54.719Z,2192
2017-05-10T05:27:35.220Z,2240
2017-05-10T05:28:15.671Z,2424
2017-05-10T05:28:56.133Z,2504
2017-05-10T05:29:36.659Z,2740
2017-05-10T05:30:17.092Z,3036
2017-05-10T05:30:57.660Z,3480
2017-05-10T05:31:38.106Z,4100
2017-05-10T05:32:18.607Z,4688
2017-05-10T05:32:59.101Z,5032
2017-05-10T05:33:39.595Z,5128
2017-05-10T05:34:20.013Z,5108
2017-05-10T05:35:00.484Z,5212
2017-05-10T05:35:40.948Z,5296
2017-05-10T05:36:21.470Z,5316
2017-05-10T05:37:02.095Z,5316
2017-05-10T05:37:42.549Z,5340
2017-05-10T05:38:22.994Z,5160
2017-05-10T05:39:03.573Z,5228
2017-05-10T05:39:43.975Z,5524
2017-05-10T05:40:24.450Z,5596
2017-05-10T05:41:05.000Z,5588
2017-05-10T05:41:45.509Z,5552
2017-05-10T05:42:26.143Z,5476
2017-05-10T05:43:06.655Z,5672
2017-05-10T05:43:47.147Z,5816
2017-05-10T05:44:27.769Z,5896
2017-05-10T05:45:08.567Z,5884
2017-05-10T05:45:49.225Z,5792
2017-05-10T05:46:29.970Z,5712
2017-05-10T05:47:10.528Z,5628
2017-05-10T05:47:51.122Z,5516
2017-05-10T05:48:31.665Z,5384
2017-05-10T05:49:12.134Z,5312
2017-05-10T05:49:52.643Z,5320
2017-05-10T05:50:33.257Z,5268
2017-05-10T05:51:13.719Z,5220
2017-05-10T05:51:54.193Z,5208
2017-05-10T05:52:34.665Z,5116
2017-05-10T05:53:15.172Z,4980
2017-05-10T05:53:55.665Z,4772
2017-05-10T05:54:36.121Z,4592
2017-05-10T05:55:16.612Z,4588
2017-05-10T05:55:57.099Z,5004
2017-05-10T05:56:37.643Z,5412
2017-05-10T05:57:18.066Z,5492
2017-05-10T05:57:58.594Z,5612
2017-05-10T05:58:39.143Z,5820
2017-05-10T05:59:19.682Z,5760
2017-05-10T06:00:00.134Z,5688
2017-05-10T06:00:40.615Z,5548
2017-05-10T06:01:21.060Z,5368
2017-05-10T06:02:01.560Z,5232
2017-05-10T06:02:42.075Z,5256
2017-05-10T06:03:22.534Z,5264
2017-05-10T06:04:03.012Z,5312
2017-05-10T06:04:43.588Z,5440
2017-05-10T06:05:24.054Z,5684
2017-05-10T06:06:04.560Z,5996
2017-05-10T06:06:45.090Z,6272
2017-05-10T06:07:25.560Z,6544
2017-05-10T06:08:06.052Z,6876
2017-05-10T06:08:46.510Z,7072
2017-05-10T06:09:26.993Z,7108
2017-05-10T06:10:07.466Z,7164
2017-05-10T06:10:47.940Z,7180
2017-05-10T06:11:28.490Z,7176
2017-05-10T06:12:08.914Z,7208
2017-05-10T06:12:49.595Z,7304
2017-05-10T06:13:29.877Z,7392
2017-05-10T06:14:10.358Z,7224
2017-05-10T06:14:50.834Z,7008
2017-05-10T06:15:31.379Z,6960
2017-05-10T06:16:11.808Z,6976
2017-05-10T06:16:52.292Z,7204
2017-05-10T06:17:32.839Z,7536
2017-05-10T06:18:13.251Z,7860
2017-05-10T06:18:53.740Z,8244
2017-05-10T06:19:34.265Z,8352
2017-05-10T06:20:14.735Z,8224
2017-05-10T06:20:55.169Z,8152
2017-05-10T06:21:35.712Z,8860
2017-05-10T06:22:16.170Z,8984
2017-05-10T06:22:56.634Z,8980
2017-05-10T06:23:37.125Z,9096
2017-05-10T06:24:17.712Z,9520
2017-05-10T06:24:58.197Z,9688
2017-05-10T06:25:38.711Z,9628
2017-05-10T06:26:19.195Z,9272
2017-05-10T06:26:59.716Z,9084
2017-05-10T06:27:40.161Z,9204
2017-05-10T06:28:20.742Z,9196
2017-05-10T06:29:01.167Z,8928
2017-05-10T06:29:41.621Z,8508
2017-05-10T06:30:22.095Z,8392
2017-05-10T06:31:02.563Z,8216
2017-05-10T06:31:43.079Z,8088
2017-05-10T06:32:23.526Z,7632
2017-05-10T06:33:04.075Z,6968
2017-05-10T06:33:44.505Z,7004
2017-05-10T06:34:25.068Z,7428
2017-05-10T06:35:05.517Z,7884
2017-05-10T06:35:46.035Z,7916
2017-05-10T06:36:26.504Z,8260
2017-05-10T06:37:06.992Z,8936
2017-05-10T06:37:47.438Z,9112
2017-05-10T06:38:27.950Z,8992
2017-05-10T06:39:08.461Z,8820
2017-05-10T06:39:48.986Z,8512
2017-05-10T06:40:29.452Z,8032
2017-05-10T06:41:10.060Z,7672
2017-05-10T06:41:50.512Z,7300
2017-05-10T06:42:31.059Z,6892
2017-05-10T06:43:12.703Z,6404
2017-05-10T06:43:55.318Z,6216
2017-05-10T06:44:35.845Z,6136
2017-05-10T06:45:16.262Z,5628
2017-05-10T06:45:56.736Z,5120
2017-05-10T06:46:37.194Z,4680
2017-05-10T06:47:17.673Z,4432
2017-05-10T06:47:58.256Z,4264
2017-05-10T06:48:38.744Z,4376
2017-05-10T06:49:19.357Z,4668
2017-05-10T06:50:00.036Z,5192
2017-05-10T06:50:40.501Z,5696
2017-05-10T06:51:20.958Z,6308
2017-05-10T06:52:01.399Z,6636
2017-05-10T06:52:41.909Z,6184
2017-05-10T06:53:22.398Z,5668
2017-05-10T06:54:03.046Z,5416
2017-05-10T06:54:43.390Z,5700
2017-05-10T06:55:23.931Z,6568
2017-05-10T06:56:04.492Z,6064
2017-05-10T06:56:45.030Z,5952
2017-05-10T06:57:25.662Z,5312
2017-05-10T06:58:06.159Z,5384
2017-05-10T06:58:46.714Z,5812
2017-05-10T06:59:27.176Z,7056
2017-05-10T07:00:07.689Z,7876
2017-05-10T07:00:48.182Z,7004
2017-05-10T07:01:28.662Z,5852
2017-05-10T07:02:09.163Z,5400
2017-05-10T07:02:49.784Z,5544
2017-05-10T07:03:31.000Z,5824
2017-05-10T07:04:12.220Z,6232
2017-05-10T07:04:53.180Z,6832
2017-05-10T07:05:34.180Z,7240
2017-05-10T07:06:14.876Z,8252
2017-05-10T07:06:55.382Z,10256
2017-05-10T07:07:35.945Z,10376
2017-05-10T07:08:16.544Z,8188
2017-05-10T07:08:57.128Z,7672
2017-05-10T07:09:37.643Z,7576
2017-05-10T07:10:18.149Z,7172
2017-05-10T07:10:58.632Z,6896
2017-05-10T07:11:39.122Z,6828
2017-05-10T07:12:19.601Z,6916
2017-05-10T07:13:00.127Z,6540
2017-05-10T07:13:40.606Z,7012
2017-05-10T07:14:21.115Z,6808
2017-05-10T07:15:01.594Z,6716
2017-05-10T07:15:42.978Z,6620
2017-05-10T07:16:23.456Z,6664
2017-05-10T07:17:03.937Z,6228
2017-05-10T07:17:44.495Z,5900
2017-05-10T07:18:25.062Z,5748
2017-05-10T07:19:05.686Z,5612
2017-05-10T07:19:46.221Z,5380
2017-05-10T07:20:26.718Z,5444
2017-05-10T07:21:07.182Z,5656
2017-05-10T07:21:47.680Z,5872
2017-05-10T07:22:28.160Z,7088
2017-05-10T07:23:08.655Z,6832
2017-05-10T07:23:49.139Z,7592
2017-05-10T07:24:29.572Z,7724
2017-05-10T07:25:10.910Z,9224
2017-05-10T07:25:51.428Z,10496
2017-05-10T07:26:32.308Z,9644
2017-05-10T07:27:12.804Z,9836
2017-05-10T07:28:00.202Z,10452
2017-05-10T07:28:40.748Z,11472
2017-05-10T07:29:21.212Z,11152
2017-05-10T07:30:02.322Z,9368
2017-05-10T07:30:42.965Z,9308
2017-05-10T07:31:23.600Z,10172
2017-05-10T07:32:04.423Z,10252
2017-05-10T07:32:44.866Z,9840
2017-05-10T07:33:25.368Z,9656
2017-05-10T07:34:05.887Z,9996
2017-05-10T07:34:46.374Z,10396
2017-05-10T07:35:27.125Z,10560
2017-05-10T07:36:07.644Z,10660
2017-05-10T07:36:48.108Z,10560
2017-05-10T07:37:28.656Z,10420
2017-05-10T07:38:09.166Z,10392
2017-05-10T07:38:49.969Z,10204
2017-05-10T07:39:30.386Z,10044
2017-05-10T07:40:10.839Z,9864
2017-05-10T07:40:51.473Z,9640
2017-05-10T07:41:31.975Z,9444
2017-05-10T07:42:12.455Z,9264
2017-05-10T07:42:52.949Z,9016
2017-05-10T07:43:33.537Z,8684
2017-05-10T07:44:14.198Z,8412
2017-05-10T07:44:54.624Z,8352
2017-05-10T07:45:35.143Z,8208
2017-05-10T07:46:15.581Z,7912
2017-05-10T07:46:56.068Z,7852
2017-05-10T07:47:36.826Z,7856
2017-05-10T07:48:17.128Z,7980
2017-05-10T07:48:57.770Z,7964
2017-05-10T07:49:38.143Z,8004
2017-05-10T07:50:18.666Z,8060
2017-05-10T07:50:59.129Z,8104
2017-05-10T07:51:39.623Z,8296
2017-05-10T07:52:20.123Z,8588
2017-05-10T07:53:00.585Z,8824
2017-05-10T07:53:42.027Z,9032
2017-05-10T07:54:21.576Z,9112
2017-05-10T07:55:02.543Z,9336
2017-05-10T07:55:43.070Z,9748
2017-05-10T07:56:23.606Z,9868
2017-05-10T07:57:04.128Z,10044
2017-05-10T07:57:44.649Z,11156
2017-05-10T07:58:25.121Z,12132
2017-05-10T07:59:05.665Z,12396
2017-05-10T07:59:46.171Z,12328
2017-05-10T08:00:26.840Z,12872
2017-05-10T08:01:07.289Z,13584
2017-05-10T08:01:47.771Z,14488
2017-05-10T08:02:28.260Z,14624
2017-05-10T08:03:08.681Z,14676
2017-05-10T08:03:49.366Z,14800
2017-05-10T08:04:30.691Z,15208
2017-05-10T08:05:11.318Z,15136
2017-05-10T08:05:52.010Z,14024
2017-05-10T08:06:32.581Z,12708
2017-05-10T08:07:13.096Z,12208
2017-05-10T08:07:53.623Z,12636
2017-05-10T08:08:34.346Z,11600
2017-05-10T08:09:14.838Z,10052
2017-05-10T08:09:55.380Z,9448
2017-05-10T08:10:35.853Z,9204
2017-05-10T08:11:16.374Z,9952
2017-05-10T08:11:56.829Z,9392
2017-05-10T08:12:37.446Z,8428
2017-05-10T08:13:19.107Z,8176
2017-05-10T08:13:59.550Z,7568
2017-05-10T08:14:40.100Z,7452
2017-05-10T08:15:20.703Z,7028
2017-05-10T08:16:01.093Z,6780
2017-05-10T08:16:41.631Z,6516
2017-05-10T08:17:22.149Z,5856
2017-05-10T08:18:02.610Z,5220
2017-05-10T08:18:43.126Z,3720
2017-05-10T08:19:23.671Z,3508
2017-05-10T08:20:04.120Z,4340
2017-05-10T08:20:47.182Z,5060
2017-05-10T08:21:27.629Z,5228
2017-05-10T08:22:08.181Z,5428
2017-05-10T08:22:48.699Z,4536
2017-05-10T08:23:29.211Z,4012
2017-05-10T08:24:09.694Z,4676
2017-05-10T08:24:50.190Z,6084
2017-05-10T08:25:30.709Z,7072
2017-05-10T08:26:11.199Z,7536
2017-05-10T08:26:51.707Z,7796
2017-05-10T08:27:32.184Z,7548
2017-05-10T08:28:12.716Z,7356
2017-05-10T08:28:53.207Z,7456
2017-05-10T08:29:33.684Z,8036
2017-05-10T08:30:14.230Z,9164
2017-05-10T08:30:54.778Z,10900
2017-05-10T08:31:35.234Z,12876
2017-05-10T08:32:15.702Z,14080
2017-05-10T08:32:56.253Z,14408
2017-05-10T08:33:36.738Z,14688
2017-05-10T08:34:17.188Z,15312
2017-05-10T08:34:57.694Z,15304
2017-05-10T08:35:38.232Z,15032
2017-05-10T08:36:18.737Z,15008
2017-05-10T08:36:59.258Z,15128
2017-05-10T08:37:39.831Z,15428
2017-05-10T08:38:20.349Z,16268
2017-05-10T08:39:00.914Z,17696
2017-05-10T08:39:41.420Z,18304
2017-05-10T08:40:21.975Z,18400
2017-05-10T08:41:02.458Z,18432
2017-05-10T08:41:43.053Z,18464
2017-05-10T08:42:23.544Z,18624
2017-05-10T08:43:04.036Z,18880
2017-05-10T08:43:44.513Z,19104
2017-05-10T08:44:25.010Z,18944
2017-05-10T08:45:05.660Z,18720
2017-05-10T08:45:46.099Z,17760
2017-05-10T08:46:26.567Z,16028
2017-05-10T08:47:07.113Z,14512
2017-05-10T08:47:47.609Z,13608
2017-05-10T08:48:28.180Z,13816
2017-05-10T08:49:08.681Z,14624
2017-05-10T08:49:50.162Z,14488
2017-05-10T08:50:30.650Z,14092
2017-05-10T08:51:11.156Z,13236
2017-05-10T08:51:51.610Z,14536
2017-05-10T08:52:32.116Z,14892
2017-05-10T08:53:12.708Z,15188
2017-05-10T08:53:53.329Z,15484
2017-05-10T08:54:34.755Z,15644
2017-05-10T08:55:15.274Z,15336
2017-05-10T08:55:55.797Z,14908
2017-05-10T08:56:36.284Z,14784
2017-05-10T08:57:16.779Z,15528
2017-05-10T08:57:57.309Z,15484
2017-05-10T08:58:37.854Z,14592
2017-05-10T08:59:18.371Z,13400
2017-05-10T08:59:58.913Z,12412
2017-05-10T09:00:39.353Z,11168
2017-05-10T09:01:19.896Z,10228
2017-05-10T09:02:00.394Z,9376
2017-05-10T09:02:40.886Z,9772
2017-05-10T09:03:21.444Z,10964
2017-05-10T09:04:01.904Z,10780
2017-05-10T09:04:42.446Z,10940
2017-05-10T09:05:22.910Z,11412
2017-05-10T09:06:03.384Z,10288
2017-05-10T09:06:43.918Z,11104
2017-05-10T09:07:24.413Z,13336
2017-05-10T09:08:04.897Z,15464
2017-05-10T09:08:45.368Z,15952
2017-05-10T09:09:31.653Z,13180
2017-05-10T09:10:20.034Z,9984
2017-05-10T09:11:09.809Z,7896
2017-05-10T09:12:00.107Z,7768
2017-05-10T09:12:49.353Z,8672
2017-05-10T09:13:37.421Z,7956
2017-05-10T09:14:24.137Z,6568
2017-05-10T09:15:09.936Z,5644
2017-05-10T09:15:57.841Z,5388
2017-05-10T09:16:48.113Z,5076
2017-05-10T09:17:37.183Z,4804
2017-05-10T09:18:25.697Z,4652
2017-05-10T09:19:11.499Z,4032
2017-05-10T09:19:55.242Z,3868
2017-05-10T09:20:42.150Z,3848
2017-05-10T09:21:28.204Z,3788
2017-05-10T09:22:08.612Z,3784
2017-05-10T09:22:49.199Z,3840